createdAt,value
2022-11-20T00:01:31.259Z,-6.10
2022-11-20T00:03:59.352Z,-6.00
2022-11-20T00:06:28.139Z,-6.10
2022-11-20T00:08:57.791Z,-6.10
2022-11-20T00:11:26.356Z,-6.10
2022-11-20T00:13:56.123Z,-6.10
2022-11-20T00:16:25.754Z,-6.10
2022-11-20T00:18:53.292Z,-6.10
2022-11-20T00:21:22.507Z,-6.20
2022-11-20T00:23:50.314Z,-6.20
2022-11-20T00:26:19.757Z,-6.20
2022-11-20T00:28:52.777Z,-6.20
2022-11-20T00:31:23.128Z,-6.20
2022-11-20T00:33:50.882Z,-6.10
2022-11-20T00:36:20.928Z,-6.20
2022-11-20T00:38:48.373Z,-6.10
2022-11-20T00:41:16.947Z,-6.10
2022-11-20T00:43:44.646Z,-6.10
2022-11-20T00:46:17.148Z,-6.00
2022-11-20T00:48:44.858Z,-6.00
2022-11-20T00:51:16.840Z,-6.00
2022-11-20T00:53:44.896Z,-6.00
2022-11-20T00:56:15.393Z,-6.00
2022-11-20T00:58:44.556Z,-6.00
2022-11-20T01:01:25.621Z,-6.10
2022-11-20T01:03:55.041Z,-6.20
2022-11-20T01:06:25.093Z,-6.20
2022-11-20T01:08:54.834Z,-6.20
2022-11-20T01:11:25.270Z,-6.30
2022-11-20T01:13:54.037Z,-6.30
2022-11-20T01:16:30.371Z,-6.30
2022-11-20T01:18:59.659Z,-6.30
2022-11-20T01:21:29.922Z,-6.30
2022-11-20T01:23:57.942Z,-6.40
2022-11-20T01:26:27.992Z,-6.40
2022-11-20T01:28:56.301Z,-6.40
2022-11-20T01:31:33.762Z,-6.40
2022-11-20T01:34:07.103Z,-6.40
2022-11-20T01:36:36.960Z,-6.40
2022-11-20T01:39:08.807Z,-6.50
2022-11-20T01:41:54.799Z,-6.50
2022-11-20T01:44:43.198Z,-6.60
2022-11-20T01:47:13.380Z,-6.60
2022-11-20T01:50:01.243Z,-6.60
2022-11-20T01:52:37.657Z,-6.70
2022-11-20T01:55:16.004Z,-6.70
2022-11-20T01:57:45.351Z,-6.70
2022-11-20T02:00:16.190Z,-6.80
2022-11-20T02:02:48.822Z,-6.80
2022-11-20T02:05:30.007Z,-6.80
2022-11-20T02:07:59.019Z,-6.80
2022-11-20T02:10:28.151Z,-6.90
2022-11-20T02:13:14.574Z,-6.90
2022-11-20T02:15:42.027Z,-6.90
2022-11-20T02:18:10.636Z,-6.90
2022-11-20T02:20:38.404Z,-6.90
2022-11-20T02:23:13.724Z,-7.00
2022-11-20T02:25:42.466Z,-7.00
2022-11-20T02:28:09.794Z,-7.00
2022-11-20T02:30:37.087Z,-7.00
2022-11-20T02:33:04.232Z,-7.00
2022-11-20T02:35:31.257Z,-7.00
2022-11-20T02:38:02.349Z,-7.10
2022-11-20T02:40:30.436Z,-7.10
2022-11-20T02:42:58.341Z,-7.10
2022-11-20T02:45:26.309Z,-7.10
2022-11-20T02:47:53.561Z,-7.10
2022-11-20T02:50:21.357Z,-7.10
2022-11-20T02:52:48.544Z,-7.10
2022-11-20T02:55:15.770Z,-7.10
2022-11-20T02:57:42.849Z,-7.10
2022-11-20T03:00:10.780Z,-7.20
2022-11-20T03:02:38.223Z,-7.20
2022-11-20T03:05:05.540Z,-7.20
2022-11-20T03:07:32.781Z,-7.20
2022-11-20T03:09:59.995Z,-7.30
2022-11-20T03:12:27.019Z,-7.30
2022-11-20T03:14:54.039Z,-7.30
2022-11-20T03:17:21.699Z,-7.30
2022-11-20T03:19:48.749Z,-7.30
2022-11-20T03:22:16.196Z,-7.30
2022-11-20T03:24:43.217Z,-7.20
2022-11-20T03:27:10.249Z,-7.20
2022-11-20T03:29:37.636Z,-7.20
2022-11-20T03:32:04.808Z,-7.20
2022-11-20T03:34:31.882Z,-7.20
2022-11-20T03:36:58.954Z,-7.30
2022-11-20T03:39:26.066Z,-7.30
2022-11-20T03:41:53.196Z,-7.40
2022-11-20T03:44:23.098Z,-7.40
2022-11-20T03:46:50.201Z,-7.30
2022-11-20T03:49:17.365Z,-7.30
2022-11-20T03:51:44.933Z,-7.30
2022-11-20T03:54:12.057Z,-7.30
2022-11-20T03:56:40.956Z,-7.20
2022-11-20T03:59:08.333Z,-7.20
2022-11-20T04:01:38.636Z,-7.30
2022-11-20T04:04:05.988Z,-7.30
2022-11-20T04:06:38.375Z,-7.40
2022-11-20T04:09:06.559Z,-7.40
2022-11-20T04:11:36.568Z,-7.50
2022-11-20T04:14:06.128Z,-7.50
2022-11-20T04:16:35.393Z,-7.50
2022-11-20T04:19:04.553Z,-7.50
2022-11-20T04:21:31.693Z,-7.50
2022-11-20T04:23:59.316Z,-7.40
2022-11-20T04:26:28.598Z,-7.40
2022-11-20T04:28:56.121Z,-7.40
2022-11-20T04:31:25.959Z,-7.40
2022-11-20T04:33:53.167Z,-7.40
2022-11-20T04:36:25.499Z,-7.40
2022-11-20T04:38:57.003Z,-7.50
2022-11-20T04:41:26.494Z,-7.50
2022-11-20T04:44:00.800Z,-7.50
2022-11-20T04:46:29.139Z,-7.50
2022-11-20T04:48:56.723Z,-7.60
2022-11-20T04:51:24.316Z,-7.60
2022-11-20T04:53:51.511Z,-7.60
2022-11-20T04:56:18.862Z,-7.70
2022-11-20T04:58:45.965Z,-7.70
2022-11-20T05:01:21.982Z,-7.70
2022-11-20T05:03:49.621Z,-7.70
2022-11-20T05:06:19.047Z,-7.70
2022-11-20T05:08:46.309Z,-7.80
2022-11-20T05:11:16.891Z,-7.70
2022-11-20T05:13:44.219Z,-7.80
2022-11-20T05:16:17.145Z,-7.80
2022-11-20T05:18:44.950Z,-7.80
2022-11-20T05:21:13.086Z,-7.80
2022-11-20T05:23:40.697Z,-7.90
2022-11-20T05:26:13.160Z,-7.90
2022-11-20T05:28:40.276Z,-7.90
2022-11-20T05:31:08.374Z,-7.90
2022-11-20T05:33:36.947Z,-7.90
2022-11-20T05:36:05.449Z,-7.90
2022-11-20T05:38:33.091Z,-8.00
2022-11-20T05:41:18.088Z,-8.00
2022-11-20T05:43:48.736Z,-8.00
2022-11-20T05:46:19.622Z,-8.00
2022-11-20T05:48:49.563Z,-8.00
2022-11-20T05:51:19.411Z,-8.00
2022-11-20T05:53:48.823Z,-7.90
2022-11-20T05:56:19.665Z,-7.90
2022-11-20T05:58:47.264Z,-8.00
2022-11-20T06:01:25.814Z,-8.00
2022-11-20T06:03:53.833Z,-8.00
2022-11-20T06:06:21.957Z,-8.00
2022-11-20T06:08:49.890Z,-8.00
2022-11-20T06:11:18.335Z,-8.00
2022-11-20T06:13:46.039Z,-8.00
2022-11-20T06:16:15.362Z,-8.10
2022-11-20T06:18:42.643Z,-8.10
2022-11-20T06:21:15.872Z,-8.10
2022-11-20T06:23:43.975Z,-8.10
2022-11-20T06:26:24.260Z,-8.00
2022-11-20T06:28:52.335Z,-8.00
2022-11-20T06:31:24.343Z,-8.00
2022-11-20T06:33:52.559Z,-8.00
2022-11-20T06:36:23.163Z,-8.00
2022-11-20T06:38:50.847Z,-8.00
2022-11-20T06:41:21.566Z,-8.00
2022-11-20T06:43:49.153Z,-7.90
2022-11-20T06:46:20.426Z,-7.90
2022-11-20T06:48:49.400Z,-7.90
2022-11-20T06:51:17.290Z,-7.90
2022-11-20T06:53:44.577Z,-7.80
2022-11-20T06:56:11.748Z,-7.80
2022-11-20T06:58:39.076Z,-7.80
2022-11-20T07:01:10.183Z,-7.40
2022-11-20T07:03:37.863Z,-7.20
2022-11-20T07:06:08.010Z,-7.10
2022-11-20T07:08:36.584Z,-7.10
2022-11-20T07:11:06.502Z,-7.10
2022-11-20T07:13:34.017Z,-7.20
2022-11-20T07:16:04.059Z,-7.20
2022-11-20T07:18:31.556Z,-7.20
2022-11-20T07:21:05.543Z,-7.30
2022-11-20T07:23:32.750Z,-7.20
2022-11-20T07:26:03.802Z,-7.20
2022-11-20T07:28:30.877Z,-7.10
2022-11-20T07:30:58.015Z,-7.00
2022-11-20T07:33:25.420Z,-6.80
2022-11-20T07:35:52.475Z,-6.70
2022-11-20T07:38:19.800Z,-6.60
2022-11-20T07:40:47.394Z,-6.60
2022-11-20T07:43:14.603Z,-6.40
2022-11-20T07:45:42.117Z,-6.40
2022-11-20T07:48:09.261Z,-6.40
2022-11-20T07:50:36.287Z,-6.20
2022-11-20T07:53:07.004Z,-6.20
2022-11-20T07:55:37.472Z,-6.00
2022-11-20T07:58:04.820Z,-6.00
2022-11-20T08:00:32.326Z,-6.00
2022-11-20T08:03:00.222Z,-5.80
2022-11-20T08:05:27.373Z,-5.80
2022-11-20T08:07:54.413Z,-5.70
2022-11-20T08:10:22.037Z,-5.60
2022-11-20T08:13:12.462Z,-5.50
2022-11-20T08:15:41.411Z,-5.40
2022-11-20T08:21:02.698Z,-5.10
2022-11-20T08:23:29.882Z,-4.90
2022-11-20T08:25:57.022Z,-4.80
2022-11-20T08:28:24.433Z,-4.70
2022-11-20T08:30:51.827Z,-4.50
2022-11-20T08:33:21.796Z,-4.30
2022-11-20T08:35:48.883Z,-4.30
2022-11-20T08:38:15.973Z,-4.20
2022-11-20T08:41:03.752Z,-4.00
2022-11-20T08:43:30.932Z,-3.90
2022-11-20T08:45:58.683Z,-3.70
2022-11-20T08:48:25.890Z,-3.60
2022-11-20T08:50:52.927Z,-3.50
2022-11-20T08:53:20.959Z,-3.30
2022-11-20T08:55:48.118Z,-3.10
2022-11-20T08:58:15.219Z,-2.10
2022-11-20T09:00:42.358Z,-0.70
2022-11-20T09:03:11.135Z,0.70
2022-11-20T09:05:38.597Z,1.50
2022-11-20T09:08:05.749Z,2.30
2022-11-20T09:10:33.489Z,2.40
2022-11-20T09:13:00.736Z,2.70
2022-11-20T09:15:27.917Z,3.10
2022-11-20T09:17:56.437Z,3.80
2022-11-20T09:20:23.773Z,4.40
2022-11-20T09:22:51.065Z,4.80
2022-11-20T09:25:18.575Z,5.30
2022-11-20T09:27:47.512Z,5.70
2022-11-20T09:30:16.230Z,6.10
2022-11-20T09:32:44.223Z,6.70
2022-11-20T09:35:12.262Z,6.70
2022-11-20T09:37:39.729Z,6.30
2022-11-20T09:40:08.040Z,6.30
2022-11-20T09:42:48.788Z,6.60
2022-11-20T09:45:23.311Z,6.90
2022-11-20T09:48:00.467Z,7.60
2022-11-20T09:50:34.627Z,7.20
2022-11-20T09:53:36.960Z,7.10
2022-11-20T09:56:11.783Z,8.20
2022-11-20T09:58:50.269Z,8.70
2022-11-20T10:01:30.679Z,9.20
2022-11-20T10:04:04.138Z,9.30
2022-11-20T10:06:34.951Z,9.60
2022-11-20T10:09:12.402Z,9.60
2022-11-20T10:12:07.439Z,10.20
2022-11-20T10:15:02.989Z,10.30
2022-11-20T10:17:54.229Z,10.70
2022-11-20T10:20:31.959Z,9.70
2022-11-20T10:23:33.763Z,9.90
2022-11-20T10:26:24.280Z,9.50
2022-11-20T10:29:10.002Z,8.60
2022-11-20T10:31:44.418Z,7.70
2022-11-20T10:34:22.948Z,6.60
2022-11-20T10:37:31.356Z,5.50
2022-11-20T10:40:26.222Z,4.30
2022-11-20T10:43:00.693Z,3.80
2022-11-20T10:45:30.434Z,3.50
2022-11-20T10:48:18.034Z,3.20
2022-11-20T10:51:13.875Z,2.80
2022-11-20T10:54:07.662Z,2.70
2022-11-20T10:56:49.502Z,2.60
2022-11-20T10:59:50.680Z,3.10
2022-11-20T11:02:23.375Z,3.30
2022-11-20T11:04:56.108Z,3.40
2022-11-20T11:07:29.268Z,3.60
2022-11-20T11:09:58.220Z,3.70
2022-11-20T11:12:28.529Z,3.70
2022-11-20T11:14:57.595Z,3.50
2022-11-20T11:17:30.766Z,3.30
2022-11-20T11:20:13.120Z,3.00
2022-11-20T11:22:49.901Z,2.70
2022-11-20T11:25:37.063Z,2.60
2022-11-20T11:28:20.881Z,2.60
2022-11-20T11:30:51.625Z,2.70
2022-11-20T11:33:29.870Z,2.80
2022-11-20T11:36:01.173Z,2.60
2022-11-20T11:38:38.602Z,2.70
2022-11-20T11:41:08.415Z,2.90
2022-11-20T11:43:56.575Z,3.00
2022-11-20T11:46:33.937Z,2.90
2022-11-20T11:49:09.921Z,2.80
2022-11-20T11:52:25.335Z,3.20
2022-11-20T11:54:58.310Z,3.90
2022-11-20T11:57:41.038Z,4.40
2022-11-20T12:00:20.851Z,4.90
2022-11-20T12:02:50.981Z,5.10
2022-11-20T12:05:26.270Z,4.90
2022-11-20T12:07:57.169Z,4.60
2022-11-20T12:10:55.193Z,4.20
2022-11-20T12:13:34.696Z,4.00
2022-11-20T12:16:05.940Z,4.10
2022-11-20T12:18:33.370Z,3.90
2022-11-20T12:21:20.008Z,3.80
2022-11-20T12:23:53.010Z,4.00
2022-11-20T12:26:40.299Z,3.90
2022-11-20T12:29:29.433Z,3.70
2022-11-20T12:32:33.877Z,3.40
2022-11-20T12:35:30.266Z,3.30
2022-11-20T12:38:24.815Z,4.10
2022-11-20T12:41:47.649Z,4.50
2022-11-20T12:45:01.262Z,4.90
2022-11-20T12:47:50.386Z,5.90
2022-11-20T12:51:14.640Z,6.90
2022-11-20T12:54:07.161Z,8.10
2022-11-20T12:56:43.802Z,9.00
2022-11-20T12:59:49.397Z,8.00
2022-11-20T13:02:24.902Z,6.80
2022-11-20T13:05:04.195Z,5.60
2022-11-20T13:07:33.412Z,4.90
2022-11-20T13:10:01.373Z,4.60
2022-11-20T13:12:42.268Z,4.70
2022-11-20T13:15:34.001Z,4.70
2022-11-20T13:18:04.111Z,5.20
2022-11-20T13:20:32.651Z,5.70
2022-11-20T13:23:00.206Z,5.60
2022-11-20T13:25:31.272Z,5.10
2022-11-20T13:28:02.935Z,4.60
2022-11-20T13:30:31.671Z,4.10
2022-11-20T13:33:09.507Z,3.60
2022-11-20T13:35:41.752Z,3.30
2022-11-20T13:38:11.728Z,3.10
2022-11-20T13:40:52.151Z,3.00
2022-11-20T13:43:29.992Z,2.90
2022-11-20T13:46:03.564Z,2.60
2022-11-20T13:48:43.680Z,2.40
2022-11-20T13:51:38.784Z,2.30
2022-11-20T13:54:52.807Z,2.20
2022-11-20T13:57:47.676Z,2.10
2022-11-20T14:00:26.463Z,1.90
2022-11-20T14:03:44.213Z,1.80
2022-11-20T14:06:32.761Z,1.70
2022-11-20T14:09:01.199Z,1.70
2022-11-20T14:11:32.782Z,1.70
2022-11-20T14:14:05.736Z,1.60
2022-11-20T14:16:38.970Z,1.60
2022-11-20T14:19:21.346Z,1.50
2022-11-20T14:21:49.811Z,1.40
2022-11-20T14:24:26.126Z,1.30
2022-11-20T14:26:54.032Z,1.30
2022-11-20T14:29:29.118Z,1.30
2022-11-20T14:32:00.517Z,1.10
2022-11-20T14:34:30.499Z,1.10
2022-11-20T14:37:03.247Z,1.10
2022-11-20T14:39:38.665Z,1.10
2022-11-20T14:42:18.230Z,1.00
2022-11-20T14:44:45.926Z,1.00
2022-11-20T14:47:16.598Z,1.00
2022-11-20T14:49:44.602Z,0.90
2022-11-20T14:52:23.465Z,0.80
2022-11-20T14:55:03.116Z,0.80
2022-11-20T14:57:36.087Z,0.90
2022-11-20T15:00:15.152Z,0.80
2022-11-20T15:02:50.621Z,0.90
2022-11-20T15:05:20.853Z,0.80
2022-11-20T15:08:15.175Z,0.80
2022-11-20T15:10:53.304Z,0.70
2022-11-20T15:13:31.306Z,0.70
2022-11-20T15:16:01.602Z,0.60
2022-11-20T15:18:30.502Z,0.50
2022-11-20T15:21:02.060Z,0.50
2022-11-20T15:23:30.216Z,0.60
2022-11-20T15:25:57.706Z,0.50
2022-11-20T15:28:34.476Z,0.50
2022-11-20T15:31:03.414Z,0.50
2022-11-20T15:33:31.307Z,0.40
2022-11-20T15:35:58.702Z,0.40
2022-11-20T15:38:25.838Z,0.40
2022-11-20T15:40:53.264Z,0.50
2022-11-20T15:43:20.681Z,0.40
2022-11-20T15:45:54.227Z,0.40
2022-11-20T15:48:26.204Z,0.40
2022-11-20T15:50:57.048Z,0.40
2022-11-20T15:53:24.263Z,0.40
2022-11-20T15:55:51.575Z,0.30
2022-11-20T15:58:18.807Z,0.30
2022-11-20T16:00:46.151Z,0.30
2022-11-20T16:03:15.518Z,0.20
2022-11-20T16:05:44.202Z,0.20
2022-11-20T16:08:12.167Z,0.10
2022-11-20T16:10:40.712Z,0.10
2022-11-20T16:13:37.266Z,0.00
2022-11-20T16:16:12.770Z,0.00
2022-11-20T16:18:39.802Z,0.00
2022-11-20T16:21:13.833Z,-0.10
2022-11-20T16:23:43.752Z,-0.10
2022-11-20T16:26:16.116Z,-0.20
2022-11-20T16:28:43.599Z,-0.20
2022-11-20T16:31:17.688Z,-0.20
2022-11-20T16:33:51.350Z,-0.30
2022-11-20T16:36:19.794Z,-0.30
2022-11-20T16:38:50.999Z,-0.40
2022-11-20T16:41:18.661Z,-0.50
2022-11-20T16:43:51.570Z,-0.60
2022-11-20T16:46:22.753Z,-0.70
2022-11-20T16:48:57.605Z,-0.80
2022-11-20T16:51:26.545Z,-0.90
2022-11-20T16:53:56.817Z,-0.90
2022-11-20T16:56:28.592Z,-0.90
2022-11-20T16:59:00.684Z,-1.00
2022-11-20T17:01:29.263Z,-1.00
2022-11-20T17:04:05.360Z,-1.10
2022-11-20T17:06:35.175Z,-1.20
2022-11-20T17:09:03.594Z,-1.20
2022-11-20T17:11:34.421Z,-1.20
2022-11-20T17:14:05.055Z,-1.30
2022-11-20T17:16:35.102Z,-1.40
2022-11-20T17:19:03.931Z,-1.40
2022-11-20T17:21:32.981Z,-1.40
2022-11-20T17:24:05.802Z,-1.40
2022-11-20T17:26:33.847Z,-1.50
2022-11-20T17:29:07.133Z,-1.50
2022-11-20T17:31:35.439Z,-1.60
2022-11-20T17:34:05.308Z,-1.70
2022-11-20T17:36:33.121Z,-1.70
2022-11-20T17:39:01.406Z,-1.70
2022-11-20T17:41:30.173Z,-1.80
2022-11-20T17:44:01.937Z,-1.80
2022-11-20T17:46:33.996Z,-1.70
2022-11-20T17:49:02.371Z,-1.70
2022-11-20T17:51:32.332Z,-1.80
2022-11-20T17:54:02.168Z,-1.80
2022-11-20T17:56:55.112Z,-1.90
2022-11-20T17:59:23.717Z,-1.90
2022-11-20T18:01:52.357Z,-2.00
2022-11-20T18:04:19.641Z,-2.00
2022-11-20T18:06:49.535Z,-2.10
2022-11-20T18:09:18.728Z,-2.10
2022-11-20T18:11:46.012Z,-2.00
2022-11-20T18:14:35.044Z,-2.00
2022-11-20T18:17:05.647Z,-1.90
2022-11-20T18:19:40.433Z,-1.80
2022-11-20T18:22:14.120Z,-1.80
2022-11-20T18:24:42.330Z,-1.70
2022-11-20T18:27:17.476Z,-1.70
2022-11-20T18:29:46.452Z,-1.70
2022-11-20T18:32:13.541Z,-1.70
2022-11-20T18:34:41.577Z,-1.60
2022-11-20T18:37:10.034Z,-1.50
2022-11-20T18:39:38.095Z,-1.50
2022-11-20T18:42:24.778Z,-1.50
2022-11-20T18:44:52.907Z,-1.40
2022-11-20T18:47:26.425Z,-1.40
2022-11-20T18:49:58.812Z,-1.40
2022-11-20T18:52:29.243Z,-1.40
2022-11-20T18:54:57.078Z,-1.40
2022-11-20T18:57:26.768Z,-1.40
2022-11-20T19:00:03.480Z,-1.30
2022-11-20T19:02:38.055Z,-1.30
2022-11-20T19:05:09.390Z,-1.40
2022-11-20T19:07:36.750Z,-1.30
2022-11-20T19:10:05.713Z,-1.30
2022-11-20T19:12:32.785Z,-1.30
2022-11-20T19:15:00.151Z,-1.30
2022-11-20T19:17:27.231Z,-1.20
2022-11-20T19:19:57.055Z,-1.20
2022-11-20T19:22:24.409Z,-1.20
2022-11-20T19:24:51.910Z,-1.10
2022-11-20T19:27:19.260Z,-1.10
2022-11-20T19:29:46.457Z,-1.20
2022-11-20T19:32:16.691Z,-1.20
2022-11-20T19:34:44.997Z,-1.10
2022-11-20T19:37:15.615Z,-1.10
2022-11-20T19:39:42.632Z,-1.10
2022-11-20T19:42:09.913Z,-1.00
2022-11-20T19:44:37.600Z,-1.00
2022-11-20T19:47:08.940Z,-1.00
2022-11-20T19:49:40.485Z,-1.00
2022-11-20T19:52:07.654Z,-1.00
2022-11-20T19:54:34.748Z,-1.00
2022-11-20T19:57:02.067Z,-1.00
2022-11-20T19:59:29.145Z,-1.00
2022-11-20T20:01:56.225Z,-1.00
2022-11-20T20:04:23.624Z,-1.00
2022-11-20T20:06:51.515Z,-1.00
2022-11-20T20:09:18.891Z,-1.00
2022-11-20T20:11:47.371Z,-0.90
2022-11-20T20:14:16.268Z,-0.90
2022-11-20T20:16:43.835Z,-0.90
2022-11-20T20:19:17.116Z,-0.90
2022-11-20T20:21:45.100Z,-0.90
2022-11-20T20:24:12.628Z,-0.90
2022-11-20T20:26:40.407Z,-0.90
2022-11-20T20:29:07.787Z,-0.90
2022-11-20T20:31:35.409Z,-0.90
2022-11-20T20:34:05.551Z,-0.90
2022-11-20T20:36:33.231Z,-0.90
2022-11-20T20:39:00.352Z,-0.90
2022-11-20T20:41:27.726Z,-0.90
2022-11-20T20:44:14.109Z,-0.90
2022-11-20T20:46:41.795Z,-0.90
2022-11-20T20:49:09.587Z,-0.90
2022-11-20T20:51:36.903Z,-0.90
2022-11-20T20:54:04.893Z,-0.80
2022-11-20T20:56:32.521Z,-0.80
2022-11-20T20:58:59.672Z,-0.80
2022-11-20T21:01:29.060Z,-0.80
2022-11-20T21:03:57.579Z,-0.80
2022-11-20T21:06:25.789Z,-0.80
2022-11-20T21:08:53.216Z,-0.80
2022-11-20T21:11:21.500Z,-0.80
2022-11-20T21:13:50.089Z,-0.80
2022-11-20T21:16:18.865Z,-0.80
2022-11-20T21:18:46.618Z,-0.80
2022-11-20T21:21:34.342Z,-0.80
2022-11-20T21:24:02.979Z,-0.80
2022-11-20T21:26:30.102Z,-0.80
2022-11-20T21:28:58.245Z,-0.80
2022-11-20T21:31:27.134Z,-0.80
2022-11-20T21:33:56.078Z,-0.80
2022-11-20T21:36:26.180Z,-0.80
2022-11-20T21:38:57.476Z,-0.80
2022-11-20T21:41:27.133Z,-0.80
2022-11-20T21:44:29.533Z,-0.80
2022-11-20T21:46:45.581Z,-0.90
2022-11-20T21:49:13.686Z,-0.80
2022-11-20T21:51:40.953Z,-0.80
2022-11-20T21:54:10.054Z,-0.80
2022-11-20T21:56:37.311Z,-0.80
2022-11-20T21:59:04.637Z,-0.80
2022-11-20T22:01:32.205Z,-0.80
2022-11-20T22:04:01.928Z,-0.80
2022-11-20T22:06:34.062Z,-0.90
2022-11-20T22:09:03.019Z,-0.80
2022-11-20T22:11:30.835Z,-0.80
2022-11-20T22:14:16.998Z,-0.90
2022-11-20T22:16:44.219Z,-0.90
2022-11-20T22:19:11.482Z,-0.90
2022-11-20T22:21:41.935Z,-0.90
2022-11-20T22:24:13.023Z,-1.00
2022-11-20T22:26:40.958Z,-1.10
2022-11-20T22:29:11.258Z,-1.10
2022-11-20T22:31:38.467Z,-1.20
2022-11-20T22:34:05.665Z,-1.20
2022-11-20T22:36:37.049Z,-1.20
2022-11-20T22:39:05.460Z,-1.30
2022-11-20T22:41:33.698Z,-1.40
2022-11-20T22:44:03.515Z,-1.40
2022-11-20T22:46:34.205Z,-1.50
2022-11-20T22:49:04.729Z,-1.60
2022-11-20T22:51:35.741Z,-1.60
2022-11-20T22:54:03.851Z,-1.70
2022-11-20T22:56:31.758Z,-1.70
2022-11-20T22:58:59.116Z,-1.80
2022-11-20T23:01:29.473Z,-1.90
2022-11-20T23:04:01.500Z,-1.90
2022-11-20T23:06:29.937Z,-2.00
2022-11-20T23:08:57.275Z,-2.00
2022-11-20T23:11:27.776Z,-2.10
2022-11-20T23:13:58.465Z,-2.10
2022-11-20T23:16:27.673Z,-2.20
2022-11-20T23:18:56.430Z,-2.20
2022-11-20T23:21:24.704Z,-2.30
2022-11-20T23:23:54.505Z,-2.30
2022-11-20T23:26:24.640Z,-2.30
2022-11-20T23:28:54.497Z,-2.40
2022-11-20T23:31:22.058Z,-2.40
2022-11-20T23:33:50.136Z,-2.50
2022-11-20T23:36:17.776Z,-2.40
2022-11-20T23:38:45.075Z,-2.40
2022-11-20T23:41:14.549Z,-2.40
2022-11-20T23:43:42.630Z,-2.40
2022-11-20T23:46:15.164Z,-2.50
2022-11-20T23:48:45.359Z,-2.50
2022-11-20T23:51:13.590Z,-2.60
2022-11-20T23:53:41.537Z,-2.60
2022-11-20T23:56:09.291Z,-2.70
2022-11-20T23:58:38.609Z,-2.70
